sensor_id;sensor_type;location;lat;lon;timestamp;pressure;altitude;pressure_sealevel;temperature;humidity
63691;BME280;49837;57.280;27.070;2023-04-23T00:00:51;99945.6;;;2.96;87.41
63691;BME280;49837;57.280;27.070;2023-04-23T00:01:51;99946.58;;;2.94;87.44
63691;BME280;49837;57.280;27.070;2023-04-23T00:02:53;99948.3;;;2.91;87.64
63691;BME280;49837;57.280;27.070;2023-04-23T00:03:55;99945.94;;;2.9;87.46
63691;BME280;49837;57.280;27.070;2023-04-23T00:04:56;99948.09;;;2.86;87.67
63691;BME280;49837;57.280;27.070;2023-04-23T00:05:56;99950.55;;;2.84;87.91
63691;BME280;49837;57.280;27.070;2023-04-23T00:06:57;99950.23;;;2.84;87.92
63691;BME280;49837;57.280;27.070;2023-04-23T00:07:59;99948.98;;;2.79;87.69
63691;BME280;49837;57.280;27.070;2023-04-23T00:08:59;99946.86;;;2.82;87.44
63691;BME280;49837;57.280;27.070;2023-04-23T00:09:59;99944.3;;;2.78;87.87
63691;BME280;49837;57.280;27.070;2023-04-23T00:10:59;99947.09;;;2.77;87.74
63691;BME280;49837;57.280;27.070;2023-04-23T00:11:59;99949.27;;;2.75;87.77
63691;BME280;49837;57.280;27.070;2023-04-23T00:13:00;99948.83;;;2.69;87.95
63691;BME280;49837;57.280;27.070;2023-04-23T00:14:00;99952.47;;;2.65;88.01
63691;BME280;49837;57.280;27.070;2023-04-23T00:15:01;99950.0;;;2.56;88.52
63691;BME280;49837;57.280;27.070;2023-04-23T00:16:01;99952.98;;;2.49;88.98
63691;BME280;49837;57.280;27.070;2023-04-23T00:17:01;99953.62;;;2.45;89.35
63691;BME280;49837;57.280;27.070;2023-04-23T00:18:01;99947.95;;;2.4;89.68
63691;BME280;49837;57.280;27.070;2023-04-23T00:19:01;99950.75;;;2.38;89.93
63691;BME280;49837;57.280;27.070;2023-04-23T00:20:02;99947.12;;;2.32;90.27
63691;BME280;49837;57.280;27.070;2023-04-23T00:21:02;99946.47;;;2.24;90.25
63691;BME280;49837;57.280;27.070;2023-04-23T00:22:02;99951.73;;;2.23;90.11
63691;BME280;49837;57.280;27.070;2023-04-23T00:23:03;99951.66;;;2.21;90.23
63691;BME280;49837;57.280;27.070;2023-04-23T00:24:03;99949.59;;;2.19;90.61
63691;BME280;49837;57.280;27.070;2023-04-23T00:25:04;99947.8;;;2.21;91.0
63691;BME280;49837;57.280;27.070;2023-04-23T00:26:04;99946.14;;;2.23;91.03
63691;BME280;49837;57.280;27.070;2023-04-23T00:27:05;99946.87;;;2.23;91.05
63691;BME280;49837;57.280;27.070;2023-04-23T00:28:04;99947.05;;;2.23;90.96
63691;BME280;49837;57.280;27.070;2023-04-23T00:29:05;99947.95;;;2.17;91.01
63691;BME280;49837;57.280;27.070;2023-04-23T00:30:06;99946.7;;;2.15;91.13
63691;BME280;49837;57.280;27.070;2023-04-23T00:31:05;99946.13;;;2.12;91.34
63691;BME280;49837;57.280;27.070;2023-04-23T00:32:06;99946.53;;;2.11;91.39
63691;BME280;49837;57.280;27.070;2023-04-23T00:33:06;99947.28;;;2.11;91.47
63691;BME280;49837;57.280;27.070;2023-04-23T00:34:07;99949.19;;;2.12;91.26
63691;BME280;49837;57.280;27.070;2023-04-23T00:35:07;99950.08;;;2.09;91.21
63691;BME280;49837;57.280;27.070;2023-04-23T00:36:08;99948.42;;;2.04;91.29
63691;BME280;49837;57.280;27.070;2023-04-23T00:37:08;99950.58;;;2.04;91.37
63691;BME280;49837;57.280;27.070;2023-04-23T00:38:08;99944.71;;;2.03;91.63
63691;BME280;49837;57.280;27.070;2023-04-23T00:39:08;99947.12;;;2.02;91.73
63691;BME280;49837;57.280;27.070;2023-04-23T00:40:09;99948.02;;;2.01;91.72
63691;BME280;49837;57.280;27.070;2023-04-23T00:41:09;99943.88;;;1.99;91.7
63691;BME280;49837;57.280;27.070;2023-04-23T00:42:09;99949.89;;;1.97;91.68
63691;BME280;49837;57.280;27.070;2023-04-23T00:43:10;99951.46;;;1.98;91.42
63691;BME280;49837;57.280;27.070;2023-04-23T00:44:10;99949.91;;;2.0;91.29
63691;BME280;49837;57.280;27.070;2023-04-23T00:45:10;99947.77;;;2.03;91.28
63691;BME280;49837;57.280;27.070;2023-04-23T00:46:11;99952.7;;;2.03;91.41
63691;BME280;49837;57.280;27.070;2023-04-23T00:47:12;99951.3;;;2.02;91.5
63691;BME280;49837;57.280;27.070;2023-04-23T00:48:12;99956.0;;;2.02;91.6
63691;BME280;49837;57.280;27.070;2023-04-23T00:49:13;99954.67;;;1.98;91.65
63691;BME280;49837;57.280;27.070;2023-04-23T00:50:12;99954.5;;;1.98;91.7
63691;BME280;49837;57.280;27.070;2023-04-23T00:51:12;99959.28;;;1.95;91.77
63691;BME280;49837;57.280;27.070;2023-04-23T00:52:13;99955.8;;;1.92;91.82
63691;BME280;49837;57.280;27.070;2023-04-23T00:53:13;99955.05;;;1.89;91.94
63691;BME280;49837;57.280;27.070;2023-04-23T00:54:14;99956.55;;;1.88;92.03
63691;BME280;49837;57.280;27.070;2023-04-23T00:55:14;99957.53;;;1.91;92.1
63691;BME280;49837;57.280;27.070;2023-04-23T00:56:14;99958.28;;;1.92;92.09
63691;BME280;49837;57.280;27.070;2023-04-23T00:57:15;99956.3;;;1.92;91.91
63691;BME280;49837;57.280;27.070;2023-04-23T00:58:15;99955.25;;;1.93;91.8
63691;BME280;49837;57.280;27.070;2023-04-23T00:59:15;99954.33;;;1.87;91.81
63691;BME280;49837;57.280;27.070;2023-04-23T01:00:16;99957.03;;;1.88;91.73
63691;BME280;49837;57.280;27.070;2023-04-23T01:01:16;99956.88;;;1.91;91.42
63691;BME280;49837;57.280;27.070;2023-04-23T01:02:16;99954.91;;;1.92;91.27
63691;BME280;49837;57.280;27.070;2023-04-23T01:03:17;99957.95;;;1.96;90.86
63691;BME280;49837;57.280;27.070;2023-04-23T01:04:17;99955.91;;;1.99;90.83
63691;BME280;49837;57.280;27.070;2023-04-23T01:05:18;99959.94;;;1.98;90.85
63691;BME280;49837;57.280;27.070;2023-04-23T01:06:18;99956.66;;;1.98;90.65
63691;BME280;49837;57.280;27.070;2023-04-23T01:07:18;99958.69;;;1.99;90.57
63691;BME280;49837;57.280;27.070;2023-04-23T01:08:19;99961.41;;;1.98;90.66
63691;BME280;49837;57.280;27.070;2023-04-23T01:09:19;99959.1;;;1.92;90.98
63691;BME280;49837;57.280;27.070;2023-04-23T01:10:19;99960.66;;;1.86;91.33
63691;BME280;49837;57.280;27.070;2023-04-23T01:11:20;99956.45;;;1.81;91.76
63691;BME280;49837;57.280;27.070;2023-04-23T01:12:20;99958.39;;;1.75;92.24
63691;BME280;49837;57.280;27.070;2023-04-23T01:13:20;99957.34;;;1.73;92.55
63691;BME280;49837;57.280;27.070;2023-04-23T01:14:21;99959.29;;;1.67;93.03
63691;BME280;49837;57.280;27.070;2023-04-23T01:15:21;99961.41;;;1.64;93.28
63691;BME280;49837;57.280;27.070;2023-04-23T01:16:21;99961.66;;;1.64;93.33
63691;BME280;49837;57.280;27.070;2023-04-23T01:17:22;99962.89;;;1.63;93.21
63691;BME280;49837;57.280;27.070;2023-04-23T01:18:22;99961.8;;;1.6;93.28
63691;BME280;49837;57.280;27.070;2023-04-23T01:19:23;99963.78;;;1.56;93.51
63691;BME280;49837;57.280;27.070;2023-04-23T01:20:23;99959.73;;;1.55;93.57
63691;BME280;49837;57.280;27.070;2023-04-23T01:21:24;99962.28;;;1.53;93.4
63691;BME280;49837;57.280;27.070;2023-04-23T01:22:24;99961.05;;;1.52;93.16
63691;BME280;49837;57.280;27.070;2023-04-23T01:23:24;99958.66;;;1.51;93.21
63691;BME280;49837;57.280;27.070;2023-04-23T01:24:24;99958.25;;;1.48;93.41
63691;BME280;49837;57.280;27.070;2023-04-23T01:25:25;99959.86;;;1.47;93.55
63691;BME280;49837;57.280;27.070;2023-04-23T01:26:25;99960.44;;;1.45;93.66
63691;BME280;49837;57.280;27.070;2023-04-23T01:27:25;99957.66;;;1.47;93.67
63691;BME280;49837;57.280;27.070;2023-04-23T01:28:26;99960.2;;;1.45;93.58
63691;BME280;49837;57.280;27.070;2023-04-23T01:29:26;99955.84;;;1.47;93.36
63691;BME280;49837;57.280;27.070;2023-04-23T01:30:26;99957.75;;;1.48;93.22
63691;BME280;49837;57.280;27.070;2023-04-23T01:31:27;99954.36;;;1.48;93.27
63691;BME280;49837;57.280;27.070;2023-04-23T01:32:27;99955.92;;;1.44;93.43
63691;BME280;49837;57.280;27.070;2023-04-23T01:33:28;99957.7;;;1.43;93.57
63691;BME280;49837;57.280;27.070;2023-04-23T01:34:29;99954.28;;;1.43;93.55
63691;BME280;49837;57.280;27.070;2023-04-23T01:35:28;99955.33;;;1.43;93.5
63691;BME280;49837;57.280;27.070;2023-04-23T01:36:29;99954.44;;;1.46;93.23
63691;BME280;49837;57.280;27.070;2023-04-23T01:37:29;99951.5;;;1.5;92.71
63691;BME280;49837;57.280;27.070;2023-04-23T01:38:30;99958.16;;;1.53;92.53
63691;BME280;49837;57.280;27.070;2023-04-23T01:39:29;99956.2;;;1.55;92.29
63691;BME280;49837;57.280;27.070;2023-04-23T01:40:30;99957.59;;;1.54;92.07
63691;BME280;49837;57.280;27.070;2023-04-23T01:41:30;99956.38;;;1.54;92.05
63691;BME280;49837;57.280;27.070;2023-04-23T01:42:30;99953.41;;;1.54;91.93
63691;BME280;49837;57.280;27.070;2023-04-23T01:43:31;99952.84;;;1.54;91.9
63691;BME280;49837;57.280;27.070;2023-04-23T01:44:31;99950.03;;;1.5;92.09
63691;BME280;49837;57.280;27.070;2023-04-23T01:45:32;99951.41;;;1.47;92.21
63691;BME280;49837;57.280;27.070;2023-04-23T01:46:32;99951.16;;;1.44;92.39
63691;BME280;49837;57.280;27.070;2023-04-23T01:47:33;99948.17;;;1.38;92.69
63691;BME280;49837;57.280;27.070;2023-04-23T01:48:32;99949.86;;;1.33;92.99
63691;BME280;49837;57.280;27.070;2023-04-23T01:49:33;99949.54;;;1.34;93.15
63691;BME280;49837;57.280;27.070;2023-04-23T01:50:33;99947.8;;;1.33;93.23
63691;BME280;49837;57.280;27.070;2023-04-23T01:51:34;99949.3;;;1.3;93.47
63691;BME280;49837;57.280;27.070;2023-04-23T01:52:34;99948.22;;;1.3;93.52
63691;BME280;49837;57.280;27.070;2023-04-23T01:53:34;99948.78;;;1.28;93.54
63691;BME280;49837;57.280;27.070;2023-04-23T01:54:34;99944.35;;;1.27;93.54
63691;BME280;49837;57.280;27.070;2023-04-23T01:55:37;99947.19;;;1.24;93.62
63691;BME280;49837;57.280;27.070;2023-04-23T01:56:35;99948.07;;;1.18;93.8
63691;BME280;49837;57.280;27.070;2023-04-23T01:57:36;99948.06;;;1.15;93.98
63691;BME280;49837;57.280;27.070;2023-04-23T01:58:36;99951.73;;;1.12;94.09
63691;BME280;49837;57.280;27.070;2023-04-23T01:59:36;99950.82;;;1.09;94.32
63691;BME280;49837;57.280;27.070;2023-04-23T02:00:37;99950.51;;;1.08;94.42
63691;BME280;49837;57.280;27.070;2023-04-23T02:01:41;99949.43;;;1.08;94.46
63691;BME280;49837;57.280;27.070;2023-04-23T02:02:41;99949.34;;;1.06;94.38
63691;BME280;49837;57.280;27.070;2023-04-23T02:03:39;99948.69;;;1.06;94.34
63691;BME280;49837;57.280;27.070;2023-04-23T02:04:40;99949.0;;;1.04;94.31
63691;BME280;49837;57.280;27.070;2023-04-23T02:05:41;99948.33;;;1.03;94.29
63691;BME280;49837;57.280;27.070;2023-04-23T02:06:43;99950.87;;;1.01;94.38
63691;BME280;49837;57.280;27.070;2023-04-23T02:07:41;99951.67;;;1.01;94.5
63691;BME280;49837;57.280;27.070;2023-04-23T02:08:42;99952.98;;;1.01;94.49
63691;BME280;49837;57.280;27.070;2023-04-23T02:09:42;99950.21;;;0.99;94.47
63691;BME280;49837;57.280;27.070;2023-04-23T02:10:42;99950.2;;;0.99;94.53
63691;BME280;49837;57.280;27.070;2023-04-23T02:11:42;99948.41;;;1.01;94.52
63691;BME280;49837;57.280;27.070;2023-04-23T02:12:44;99949.14;;;1.0;94.55
63691;BME280;49837;57.280;27.070;2023-04-23T02:13:43;99947.64;;;0.96;94.55
63691;BME280;49837;57.280;27.070;2023-04-23T02:14:43;99948.59;;;0.93;94.55
63691;BME280;49837;57.280;27.070;2023-04-23T02:15:44;99949.34;;;0.93;94.64
63691;BME280;49837;57.280;27.070;2023-04-23T02:16:44;99949.25;;;0.93;94.67
63691;BME280;49837;57.280;27.070;2023-04-23T02:17:44;99949.88;;;0.9;94.72
63691;BME280;49837;57.280;27.070;2023-04-23T02:18:45;99952.11;;;0.87;94.8
63691;BME280;49837;57.280;27.070;2023-04-23T02:19:45;99956.84;;;0.87;94.86
63691;BME280;49837;57.280;27.070;2023-04-23T02:20:45;99956.77;;;0.84;94.9
63691;BME280;49837;57.280;27.070;2023-04-23T02:21:46;99960.14;;;0.85;94.89
63691;BME280;49837;57.280;27.070;2023-04-23T02:22:47;99959.73;;;0.86;94.82
63691;BME280;49837;57.280;27.070;2023-04-23T02:23:46;99960.81;;;0.88;94.66
63691;BME280;49837;57.280;27.070;2023-04-23T02:24:47;99959.73;;;0.86;94.46
63691;BME280;49837;57.280;27.070;2023-04-23T02:25:47;99961.53;;;0.86;94.37
63691;BME280;49837;57.280;27.070;2023-04-23T02:26:47;99962.29;;;0.87;94.42
63691;BME280;49837;57.280;27.070;2023-04-23T02:27:48;99961.13;;;0.86;94.46
63691;BME280;49837;57.280;27.070;2023-04-23T02:28:48;99963.17;;;0.84;94.53
63691;BME280;49837;57.280;27.070;2023-04-23T02:29:48;99964.38;;;0.81;94.67
63691;BME280;49837;57.280;27.070;2023-04-23T02:30:49;99965.84;;;0.8;94.72
63691;BME280;49837;57.280;27.070;2023-04-23T02:31:49;99962.0;;;0.81;94.72
63691;BME280;49837;57.280;27.070;2023-04-23T02:32:49;99963.06;;;0.81;94.58
63691;BME280;49837;57.280;27.070;2023-04-23T02:33:50;99962.09;;;0.83;94.58
63691;BME280;49837;57.280;27.070;2023-04-23T02:34:51;99961.03;;;0.82;94.47
63691;BME280;49837;57.280;27.070;2023-04-23T02:35:50;99959.92;;;0.8;94.44
63691;BME280;49837;57.280;27.070;2023-04-23T02:36:51;99960.52;;;0.81;94.37
63691;BME280;49837;57.280;27.070;2023-04-23T02:37:55;99963.53;;;0.79;94.45
63691;BME280;49837;57.280;27.070;2023-04-23T02:38:52;99963.45;;;0.77;94.55
63691;BME280;49837;57.280;27.070;2023-04-23T02:39:52;99963.03;;;0.76;94.68
63691;BME280;49837;57.280;27.070;2023-04-23T02:40:53;99963.36;;;0.77;94.74
63691;BME280;49837;57.280;27.070;2023-04-23T02:41:53;99964.33;;;0.75;94.77
63691;BME280;49837;57.280;27.070;2023-04-23T02:42:53;99966.53;;;0.74;94.87
63691;BME280;49837;57.280;27.070;2023-04-23T02:43:54;99969.28;;;0.75;94.77
63691;BME280;49837;57.280;27.070;2023-04-23T02:44:54;99960.66;;;0.77;94.66
63691;BME280;49837;57.280;27.070;2023-04-23T02:45:54;99963.52;;;0.78;94.52
63691;BME280;49837;57.280;27.070;2023-04-23T02:46:55;99969.64;;;0.82;94.39
63691;BME280;49837;57.280;27.070;2023-04-23T02:47:55;99965.38;;;0.83;94.29
63691;BME280;49837;57.280;27.070;2023-04-23T02:48:55;99967.5;;;0.81;94.11
63691;BME280;49837;57.280;27.070;2023-04-23T02:49:56;99963.78;;;0.78;94.21
63691;BME280;49837;57.280;27.070;2023-04-23T02:50:56;99964.42;;;0.74;94.33
63691;BME280;49837;57.280;27.070;2023-04-23T02:51:56;99967.09;;;0.72;94.46
63691;BME280;49837;57.280;27.070;2023-04-23T02:52:57;99969.38;;;0.68;94.63
63691;BME280;49837;57.280;27.070;2023-04-23T02:53:57;99972.06;;;0.67;94.77
63691;BME280;49837;57.280;27.070;2023-04-23T02:54:58;99972.31;;;0.66;94.93
63691;BME280;49837;57.280;27.070;2023-04-23T02:55:58;99973.94;;;0.63;95.0
63691;BME280;49837;57.280;27.070;2023-04-23T02:56:58;99970.06;;;0.61;95.08
63691;BME280;49837;57.280;27.070;2023-04-23T02:57:58;99972.29;;;0.62;95.17
63691;BME280;49837;57.280;27.070;2023-04-23T02:58:59;99972.41;;;0.58;95.18
63691;BME280;49837;57.280;27.070;2023-04-23T02:59:59;99971.61;;;0.59;95.14
63691;BME280;49837;57.280;27.070;2023-04-23T03:01:00;99972.83;;;0.58;95.18
63691;BME280;49837;57.280;27.070;2023-04-23T03:02:00;99972.86;;;0.59;95.23
63691;BME280;49837;57.280;27.070;2023-04-23T03:03:00;99967.04;;;0.62;95.09
63691;BME280;49837;57.280;27.070;2023-04-23T03:04:01;99970.97;;;0.61;95.07
63691;BME280;49837;57.280;27.070;2023-04-23T03:05:01;99972.22;;;0.63;95.02
63691;BME280;49837;57.280;27.070;2023-04-23T03:06:01;99968.22;;;0.68;94.85
63691;BME280;49837;57.280;27.070;2023-04-23T03:07:01;99964.86;;;0.7;94.59
63691;BME280;49837;57.280;27.070;2023-04-23T03:08:02;99964.06;;;0.7;94.5
63691;BME280;49837;57.280;27.070;2023-04-23T03:09:02;99970.05;;;0.71;94.38
63691;BME280;49837;57.280;27.070;2023-04-23T03:10:03;99962.13;;;0.66;94.48
63691;BME280;49837;57.280;27.070;2023-04-23T03:11:03;99968.05;;;0.66;94.58
63691;BME280;49837;57.280;27.070;2023-04-23T03:12:03;99966.88;;;0.64;94.62
63691;BME280;49837;57.280;27.070;2023-04-23T03:13:03;99960.58;;;0.68;94.71
63691;BME280;49837;57.280;27.070;2023-04-23T03:14:04;99959.7;;;0.69;94.81
63691;BME280;49837;57.280;27.070;2023-04-23T03:15:05;99960.36;;;0.68;94.75
63691;BME280;49837;57.280;27.070;2023-04-23T03:16:05;99961.83;;;0.67;94.73
63691;BME280;49837;57.280;27.070;2023-04-23T03:17:05;99961.02;;;0.68;94.78
63691;BME280;49837;57.280;27.070;2023-04-23T03:18:05;99964.28;;;0.69;94.75
63691;BME280;49837;57.280;27.070;2023-04-23T03:19:05;99965.99;;;0.68;94.73
63691;BME280;49837;57.280;27.070;2023-04-23T03:20:07;99968.9;;;0.69;94.7
63691;BME280;49837;57.280;27.070;2023-04-23T03:21:06;99964.38;;;0.69;94.6
63691;BME280;49837;57.280;27.070;2023-04-23T03:22:06;99962.63;;;0.68;94.62
63691;BME280;49837;57.280;27.070;2023-04-23T03:23:07;99960.84;;;0.7;94.72
63691;BME280;49837;57.280;27.070;2023-04-23T03:24:09;99964.89;;;0.71;94.73
63691;BME280;49837;57.280;27.070;2023-04-23T03:25:08;99962.73;;;0.7;94.57
63691;BME280;49837;57.280;27.070;2023-04-23T03:26:08;99963.42;;;0.75;94.54
63691;BME280;49837;57.280;27.070;2023-04-23T03:27:08;99966.38;;;0.76;94.58
63691;BME280;49837;57.280;27.070;2023-04-23T03:28:08;99966.05;;;0.74;94.61
63691;BME280;49837;57.280;27.070;2023-04-23T03:29:09;99965.88;;;0.72;94.64
63691;BME280;49837;57.280;27.070;2023-04-23T03:30:10;99966.48;;;0.74;94.72
63691;BME280;49837;57.280;27.070;2023-04-23T03:31:09;99968.03;;;0.76;94.58
63691;BME280;49837;57.280;27.070;2023-04-23T03:32:10;99969.94;;;0.75;94.59
63691;BME280;49837;57.280;27.070;2023-04-23T03:33:10;99967.69;;;0.75;94.53
63691;BME280;49837;57.280;27.070;2023-04-23T03:34:10;99967.23;;;0.78;94.44
63691;BME280;49837;57.280;27.070;2023-04-23T03:35:11;99965.43;;;0.78;94.38
63691;BME280;49837;57.280;27.070;2023-04-23T03:36:11;99966.25;;;0.78;94.35
63691;BME280;49837;57.280;27.070;2023-04-23T03:37:12;99967.31;;;0.8;94.36
63691;BME280;49837;57.280;27.070;2023-04-23T03:38:12;99969.72;;;0.83;94.35
63691;BME280;49837;57.280;27.070;2023-04-23T03:39:12;99967.77;;;0.86;94.37
63691;BME280;49837;57.280;27.070;2023-04-23T03:40:12;99971.48;;;0.89;94.38
63691;BME280;49837;57.280;27.070;2023-04-23T03:41:13;99974.69;;;0.91;94.44
63691;BME280;49837;57.280;27.070;2023-04-23T03:42:13;99977.33;;;0.92;94.51
63691;BME280;49837;57.280;27.070;2023-04-23T03:43:13;99972.25;;;0.95;94.51
63691;BME280;49837;57.280;27.070;2023-04-23T03:44:14;99974.52;;;0.99;94.55
63691;BME280;49837;57.280;27.070;2023-04-23T03:45:14;99977.97;;;1.01;94.44
63691;BME280;49837;57.280;27.070;2023-04-23T03:46:14;99975.34;;;1.03;94.38
63691;BME280;49837;57.280;27.070;2023-04-23T03:47:15;99979.38;;;1.01;94.38
63691;BME280;49837;57.280;27.070;2023-04-23T03:48:15;99980.61;;;1.06;94.29
63691;BME280;49837;57.280;27.070;2023-04-23T03:49:15;99976.5;;;1.05;94.25
63691;BME280;49837;57.280;27.070;2023-04-23T03:50:16;99980.22;;;1.05;94.19
63691;BME280;49837;57.280;27.070;2023-04-23T03:51:16;99980.91;;;1.1;94.19
63691;BME280;49837;57.280;27.070;2023-04-23T03:52:16;99979.49;;;1.1;94.12
63691;BME280;49837;57.280;27.070;2023-04-23T03:53:17;99977.87;;;1.1;94.18
63691;BME280;49837;57.280;27.070;2023-04-23T03:54:17;99976.08;;;1.13;94.16
63691;BME280;49837;57.280;27.070;2023-04-23T03:55:17;99976.1;;;1.18;94.21
63691;BME280;49837;57.280;27.070;2023-04-23T03:56:18;99976.51;;;1.21;94.23
63691;BME280;49837;57.280;27.070;2023-04-23T03:57:20;99980.0;;;1.24;94.15
63691;BME280;49837;57.280;27.070;2023-04-23T03:58:18;99981.5;;;1.28;94.19
63691;BME280;49837;57.280;27.070;2023-04-23T03:59:19;99980.94;;;1.32;94.13
63691;BME280;49837;57.280;27.070;2023-04-23T04:00:19;99982.92;;;1.36;94.01
63691;BME280;49837;57.280;27.070;2023-04-23T04:01:19;99983.0;;;1.39;93.84
63691;BME280;49837;57.280;27.070;2023-04-23T04:02:20;99984.27;;;1.42;93.7
63691;BME280;49837;57.280;27.070;2023-04-23T04:03:20;99980.23;;;1.44;93.58
63691;BME280;49837;57.280;27.070;2023-04-23T04:04:20;99979.67;;;1.48;93.44
63691;BME280;49837;57.280;27.070;2023-04-23T04:05:21;99982.99;;;1.55;93.29
63691;BME280;49837;57.280;27.070;2023-04-23T04:06:21;99982.27;;;1.6;93.12
63691;BME280;49837;57.280;27.070;2023-04-23T04:07:21;99981.98;;;1.68;92.9
63691;BME280;49837;57.280;27.070;2023-04-23T04:08:22;99983.47;;;1.71;92.73
63691;BME280;49837;57.280;27.070;2023-04-23T04:09:22;99981.67;;;1.75;92.67
63691;BME280;49837;57.280;27.070;2023-04-23T04:10:22;99975.6;;;1.8;92.52
63691;BME280;49837;57.280;27.070;2023-04-23T04:11:23;99977.19;;;1.84;92.4
63691;BME280;49837;57.280;27.070;2023-04-23T04:12:23;99980.16;;;1.87;92.32
63691;BME280;49837;57.280;27.070;2023-04-23T04:13:24;99978.67;;;1.92;92.21
63691;BME280;49837;57.280;27.070;2023-04-23T04:14:24;99980.58;;;1.91;92.32
63691;BME280;49837;57.280;27.070;2023-04-23T04:15:24;99978.84;;;1.92;92.53
63691;BME280;49837;57.280;27.070;2023-04-23T04:16:24;99981.91;;;1.98;92.59
63691;BME280;49837;57.280;27.070;2023-04-23T04:17:25;99980.67;;;2.05;92.57
63691;BME280;49837;57.280;27.070;2023-04-23T04:18:25;99985.62;;;2.1;92.33
63691;BME280;49837;57.280;27.070;2023-04-23T04:19:26;99981.02;;;2.13;92.18
63691;BME280;49837;57.280;27.070;2023-04-23T04:20:26;99984.9;;;2.22;91.82
63691;BME280;49837;57.280;27.070;2023-04-23T04:21:26;99983.11;;;2.35;91.17
63691;BME280;49837;57.280;27.070;2023-04-23T04:22:27;99976.67;;;2.47;90.28
63691;BME280;49837;57.280;27.070;2023-04-23T04:23:28;99980.38;;;2.59;89.61
63691;BME280;49837;57.280;27.070;2023-04-23T04:24:27;99978.58;;;2.71;89.17
63691;BME280;49837;57.280;27.070;2023-04-23T04:25:28;99983.17;;;2.8;88.69
63691;BME280;49837;57.280;27.070;2023-04-23T04:26:28;99983.98;;;2.83;88.38
63691;BME280;49837;57.280;27.070;2023-04-23T04:27:28;99985.12;;;2.93;88.25
63691;BME280;49837;57.280;27.070;2023-04-23T04:28:29;99988.23;;;2.99;87.94
63691;BME280;49837;57.280;27.070;2023-04-23T04:29:29;99986.44;;;3.02;87.47
63691;BME280;49837;57.280;27.070;2023-04-23T04:30:29;99985.99;;;3.09;87.84
63691;BME280;49837;57.280;27.070;2023-04-23T04:31:30;99986.56;;;3.17;87.68
63691;BME280;49837;57.280;27.070;2023-04-23T04:32:31;99985.64;;;3.24;87.74
63691;BME280;49837;57.280;27.070;2023-04-23T04:33:31;99982.42;;;3.31;87.87
63691;BME280;49837;57.280;27.070;2023-04-23T04:34:31;99984.86;;;3.41;87.99
63691;BME280;49837;57.280;27.070;2023-04-23T04:35:31;99983.44;;;3.48;88.14
63691;BME280;49837;57.280;27.070;2023-04-23T04:36:32;99984.23;;;3.51;87.86
63691;BME280;49837;57.280;27.070;2023-04-23T04:37:32;99984.52;;;3.58;87.79
63691;BME280;49837;57.280;27.070;2023-04-23T04:38:32;99987.46;;;3.66;87.82
63691;BME280;49837;57.280;27.070;2023-04-23T04:39:32;99987.18;;;3.74;87.56
63691;BME280;49837;57.280;27.070;2023-04-23T04:40:33;99987.99;;;3.76;87.4
63691;BME280;49837;57.280;27.070;2023-04-23T04:41:35;99987.89;;;3.83;87.54
63691;BME280;49837;57.280;27.070;2023-04-23T04:42:34;99989.65;;;3.92;87.29
63691;BME280;49837;57.280;27.070;2023-04-23T04:43:34;99984.97;;;4.0;87.18
63691;BME280;49837;57.280;27.070;2023-04-23T04:44:34;99988.39;;;4.08;87.08
63691;BME280;49837;57.280;27.070;2023-04-23T04:45:35;99990.6;;;4.14;87.06
63691;BME280;49837;57.280;27.070;2023-04-23T04:46:35;99991.7;;;4.21;86.77
63691;BME280;49837;57.280;27.070;2023-04-23T04:47:35;99990.53;;;4.25;86.76
63691;BME280;49837;57.280;27.070;2023-04-23T04:48:36;99987.57;;;4.33;86.62
63691;BME280;49837;57.280;27.070;2023-04-23T04:49:36;99990.07;;;4.43;86.82
63691;BME280;49837;57.280;27.070;2023-04-23T04:50:36;99989.08;;;4.51;86.81
63691;BME280;49837;57.280;27.070;2023-04-23T04:51:38;99984.47;;;4.61;86.71
63691;BME280;49837;57.280;27.070;2023-04-23T04:52:37;99985.88;;;4.72;86.55
63691;BME280;49837;57.280;27.070;2023-04-23T04:53:38;99987.18;;;4.82;86.02
63691;BME280;49837;57.280;27.070;2023-04-23T04:54:38;99982.81;;;4.9;85.79
63691;BME280;49837;57.280;27.070;2023-04-23T04:55:38;99988.05;;;4.95;85.54
63691;BME280;49837;57.280;27.070;2023-04-23T04:56:39;99989.81;;;5.0;85.45
63691;BME280;49837;57.280;27.070;2023-04-23T04:57:39;99984.31;;;5.12;85.53
63691;BME280;49837;57.280;27.070;2023-04-23T04:58:39;99985.29;;;5.22;85.29
63691;BME280;49837;57.280;27.070;2023-04-23T04:59:40;99982.96;;;5.25;84.29
63691;BME280;49837;57.280;27.070;2023-04-23T05:00:40;99983.36;;;5.31;84.38
63691;BME280;49837;57.280;27.070;2023-04-23T05:01:41;99982.69;;;5.41;84.34
63691;BME280;49837;57.280;27.070;2023-04-23T05:02:41;99980.38;;;5.54;84.55
63691;BME280;49837;57.280;27.070;2023-04-23T05:03:41;99981.31;;;5.64;84.31
63691;BME280;49837;57.280;27.070;2023-04-23T05:04:42;99979.42;;;5.72;84.37
63691;BME280;49837;57.280;27.070;2023-04-23T05:05:42;99980.0;;;5.78;84.07
63691;BME280;49837;57.280;27.070;2023-04-23T05:06:42;99979.36;;;5.83;83.93
63691;BME280;49837;57.280;27.070;2023-04-23T05:07:43;99984.14;;;5.9;83.59
63691;BME280;49837;57.280;27.070;2023-04-23T05:08:43;99981.84;;;5.95;83.24
63691;BME280;49837;57.280;27.070;2023-04-23T05:09:44;99981.25;;;6.09;83.73
63691;BME280;49837;57.280;27.070;2023-04-23T05:10:44;99979.25;;;6.21;83.56
63691;BME280;49837;57.280;27.070;2023-04-23T05:11:44;99978.96;;;6.29;83.23
63691;BME280;49837;57.280;27.070;2023-04-23T05:12:45;99977.78;;;6.32;82.21
63691;BME280;49837;57.280;27.070;2023-04-23T05:13:46;99975.88;;;6.37;82.33
63691;BME280;49837;57.280;27.070;2023-04-23T05:14:45;99980.41;;;6.5;82.84
63691;BME280;49837;57.280;27.070;2023-04-23T05:15:46;99977.33;;;6.6;82.13
63691;BME280;49837;57.280;27.070;2023-04-23T05:16:46;99977.51;;;6.69;80.5
63691;BME280;49837;57.280;27.070;2023-04-23T05:17:47;99974.95;;;6.77;81.34
63691;BME280;49837;57.280;27.070;2023-04-23T05:18:47;99974.06;;;6.86;81.41
63691;BME280;49837;57.280;27.070;2023-04-23T05:19:47;99974.36;;;6.92;79.77
63691;BME280;49837;57.280;27.070;2023-04-23T05:20:48;99975.52;;;6.97;80.0